Terminal Aerodrome Forecast
Issued by NWS

Home | Current Version | Previous Version | Text Only | Print | Product List | Glossary On
Versions: 1 2 3 4 5 6 7 8 9 10 11 12 13 14 15 16 17 18 19 20 21 22 23
000
FTUS43 KLSX 172326
TAFUIN
TAF
KUIN 172326Z 1800/1824 16010KT P6SM BKN025
     FM180300 18013G22KT P6SM VCSH OVC015
     FM180900 26009KT 5SM -SHRA BR OVC010
     FM181200 32013G19KT 5SM -SHRA BR OVC008
     FM181700 33022G39KT 4SM -RASN OVC010
     FM181900 33021G37KT P6SM BKN050=

USA.gov is the U.S. government's official web portal to all federal, state and local government web resources and services.